createdAt,value
2023-05-18T00:01:16.886Z,8.45
2023-05-18T00:03:43.682Z,8.47
2023-05-18T00:06:10.604Z,8.54
2023-05-18T00:08:37.686Z,8.51
2023-05-18T00:11:04.597Z,8.54
2023-05-18T00:13:31.385Z,8.54
2023-05-18T00:15:58.117Z,8.45
2023-05-18T00:18:27.429Z,8.42
2023-05-18T00:21:00.853Z,8.36
2023-05-18T00:23:30.001Z,8.48
2023-05-18T00:26:00.245Z,8.41
2023-05-18T00:28:27.142Z,8.35
2023-05-18T00:30:53.958Z,8.32
2023-05-18T00:33:21.321Z,8.31
2023-05-18T00:35:48.002Z,8.23
2023-05-18T00:38:17.924Z,8.22
2023-05-18T00:40:44.620Z,8.20
2023-05-18T00:43:12.443Z,8.19
2023-05-18T00:45:39.578Z,8.23
2023-05-18T00:48:06.461Z,8.18
2023-05-18T00:50:33.324Z,8.18
2023-05-18T00:53:00.069Z,8.21
2023-05-18T00:55:28.977Z,8.20
2023-05-18T00:57:56.725Z,8.23
2023-05-18T01:00:24.112Z,8.21
2023-05-18T01:02:51.600Z,8.13
2023-05-18T01:05:27.553Z,8.16
2023-05-18T01:07:56.698Z,8.09
2023-05-18T01:10:23.330Z,8.09
2023-05-18T01:12:51.548Z,7.99
2023-05-18T01:15:32.660Z,7.90
2023-05-18T01:18:05.060Z,7.85
2023-05-18T01:20:38.224Z,7.75
2023-05-18T01:23:23.698Z,7.76
2023-05-18T01:25:51.860Z,7.80
2023-05-18T01:28:20.670Z,7.87
2023-05-18T01:30:47.420Z,7.83
2023-05-18T01:33:14.138Z,7.81
2023-05-18T01:35:48.811Z,7.76
2023-05-18T01:38:16.776Z,7.72
2023-05-18T01:41:02.203Z,7.67
2023-05-18T01:43:30.724Z,7.69
2023-05-18T01:45:58.868Z,7.70
2023-05-18T01:48:25.530Z,7.59
2023-05-18T01:50:52.450Z,7.58
2023-05-18T01:53:23.199Z,7.51
2023-05-18T01:55:50.199Z,7.53
2023-05-18T01:58:16.922Z,7.53
2023-05-18T02:00:43.720Z,7.46
2023-05-18T02:03:10.537Z,7.46
2023-05-18T02:05:37.259Z,7.44
2023-05-18T02:08:04.227Z,7.40
2023-05-18T02:10:30.912Z,7.34
2023-05-18T02:12:57.582Z,7.32
2023-05-18T02:15:24.242Z,7.28
2023-05-18T02:17:50.963Z,7.33
2023-05-18T02:20:18.678Z,7.22
2023-05-18T02:22:46.259Z,7.22
2023-05-18T02:25:12.969Z,7.22
2023-05-18T02:27:39.703Z,7.11
2023-05-18T02:30:08.853Z,7.11
2023-05-18T02:32:38.978Z,7.04
2023-05-18T02:35:06.750Z,7.12
2023-05-18T02:37:34.622Z,7.08
2023-05-18T02:40:01.722Z,7.13
2023-05-18T02:42:29.527Z,7.10
2023-05-18T02:44:56.590Z,7.01
2023-05-18T02:47:23.486Z,7.07
2023-05-18T02:49:50.428Z,7.04
2023-05-18T02:52:18.020Z,7.01
2023-05-18T02:54:44.727Z,7.02
2023-05-18T02:57:17.395Z,7.00
2023-05-18T02:59:54.906Z,7.00
2023-05-18T03:02:24.057Z,7.01
2023-05-18T03:04:54.375Z,7.04
2023-05-18T03:07:21.360Z,6.95
2023-05-18T03:09:48.246Z,6.95
2023-05-18T03:12:14.909Z,6.88
2023-05-18T03:14:41.695Z,6.87
2023-05-18T03:20:05.166Z,6.85
2023-05-18T03:22:32.114Z,6.86
2023-05-18T03:25:02.522Z,6.93
2023-05-18T03:27:29.229Z,6.89
2023-05-18T03:29:59.478Z,6.92
2023-05-18T03:32:27.414Z,6.87
2023-05-18T03:34:54.647Z,6.81
2023-05-18T03:37:21.987Z,6.73
2023-05-18T03:39:48.654Z,6.73
2023-05-18T03:42:17.227Z,6.75
2023-05-18T03:44:43.944Z,6.69
2023-05-18T03:47:11.804Z,6.72
2023-05-18T03:49:38.749Z,6.68
2023-05-18T03:52:05.875Z,6.70
2023-05-18T03:54:33.072Z,6.70
2023-05-18T03:56:59.806Z,6.62
2023-05-18T03:59:26.467Z,6.72
2023-05-18T04:01:54.251Z,6.71
2023-05-18T04:04:23.845Z,6.71
2023-05-18T04:06:53.575Z,6.81
2023-05-18T04:09:20.970Z,6.82
2023-05-18T04:11:48.506Z,6.87
2023-05-18T04:14:15.261Z,6.94
2023-05-18T04:16:42.115Z,6.90
2023-05-18T04:19:09.053Z,6.93
2023-05-18T04:21:36.412Z,6.95
2023-05-18T04:24:05.954Z,6.93
2023-05-18T04:26:34.867Z,6.91
2023-05-18T04:29:01.594Z,6.94
2023-05-18T04:31:29.743Z,6.99
2023-05-18T04:33:57.692Z,7.07
2023-05-18T04:36:25.862Z,7.11
2023-05-18T04:38:53.068Z,7.21
2023-05-18T04:41:22.967Z,7.30
2023-05-18T04:43:52.675Z,7.34
2023-05-18T04:46:19.974Z,7.38
2023-05-18T04:48:50.173Z,7.37
2023-05-18T04:51:21.688Z,7.38
2023-05-18T04:53:50.358Z,7.39
2023-05-18T04:56:17.497Z,7.41
2023-05-18T04:58:46.174Z,7.47
2023-05-18T05:01:15.505Z,7.55
2023-05-18T05:03:42.639Z,7.58
2023-05-18T05:06:10.163Z,7.65
2023-05-18T05:08:37.395Z,7.67
2023-05-18T05:11:04.362Z,7.77
2023-05-18T05:13:31.151Z,7.85
2023-05-18T05:15:58.027Z,7.89
2023-05-18T05:18:25.809Z,7.89
2023-05-18T05:20:53.475Z,7.96
2023-05-18T05:23:20.148Z,7.98
2023-05-18T05:25:47.166Z,8.04
2023-05-18T05:28:14.100Z,8.10
2023-05-18T05:30:41.941Z,8.14
2023-05-18T05:33:08.807Z,8.13
2023-05-18T05:35:36.498Z,8.20
2023-05-18T05:38:03.641Z,8.23
2023-05-18T05:40:31.686Z,8.23
2023-05-18T05:42:58.894Z,8.23
2023-05-18T05:45:28.676Z,8.13
2023-05-18T05:47:58.383Z,8.25
2023-05-18T05:50:25.223Z,8.33
2023-05-18T05:52:54.622Z,8.35
2023-05-18T05:55:23.219Z,8.46
2023-05-18T05:57:50.705Z,8.51
2023-05-18T06:00:17.592Z,8.57
2023-05-18T06:02:53.066Z,8.54
2023-05-18T06:05:37.676Z,8.61
2023-05-18T06:08:07.898Z,8.55
2023-05-18T06:10:34.699Z,8.69
2023-05-18T06:13:01.566Z,8.62
2023-05-18T06:15:40.726Z,8.66
2023-05-18T06:18:07.658Z,8.73
2023-05-18T06:20:34.897Z,8.77
2023-05-18T06:23:01.658Z,8.88
2023-05-18T06:25:47.457Z,8.98
2023-05-18T06:28:40.320Z,9.06
2023-05-18T06:31:15.491Z,9.11
2023-05-18T06:33:46.232Z,9.08
2023-05-18T06:36:12.942Z,9.17
2023-05-18T06:38:39.701Z,9.21
2023-05-18T06:41:06.426Z,9.26
2023-05-18T06:43:33.315Z,9.32
2023-05-18T06:46:04.231Z,9.43
2023-05-18T06:48:36.400Z,9.51
2023-05-18T06:51:03.842Z,9.62
2023-05-18T06:53:32.137Z,9.74
2023-05-18T06:55:59.859Z,9.77
2023-05-18T06:58:27.037Z,9.84
2023-05-18T07:00:54.872Z,9.82
2023-05-18T07:03:22.206Z,9.89
2023-05-18T07:05:48.968Z,9.99
2023-05-18T07:08:15.812Z,10.05
2023-05-18T07:10:42.550Z,10.09
2023-05-18T07:13:09.309Z,10.11
2023-05-18T07:15:36.095Z,10.26
2023-05-18T07:18:03.782Z,10.38
2023-05-18T07:20:30.540Z,10.46
2023-05-18T07:22:57.578Z,10.52
2023-05-18T07:25:24.304Z,10.57
2023-05-18T07:27:54.862Z,10.64
2023-05-18T07:30:21.966Z,10.55
2023-05-18T07:32:48.757Z,10.72
2023-05-18T07:35:17.128Z,10.80
2023-05-18T07:37:43.949Z,10.88
2023-05-18T07:40:10.868Z,10.92
2023-05-18T07:42:38.509Z,10.90
2023-05-18T07:45:05.462Z,10.86
2023-05-18T07:47:32.178Z,10.90
2023-05-18T07:49:58.842Z,10.91
2023-05-18T07:52:25.869Z,11.06
2023-05-18T07:54:55.905Z,11.20
2023-05-18T07:57:22.624Z,11.23
2023-05-18T07:59:49.281Z,11.38
2023-05-18T08:02:20.114Z,11.51
2023-05-18T08:04:47.549Z,11.56
2023-05-18T08:07:14.613Z,11.69
2023-05-18T08:09:41.538Z,11.83
2023-05-18T08:12:08.371Z,11.86
2023-05-18T08:14:35.025Z,11.95
2023-05-18T08:17:03.652Z,12.05
2023-05-18T08:19:30.896Z,12.03
2023-05-18T08:21:57.768Z,12.10
2023-05-18T08:24:24.439Z,12.19
2023-05-18T08:26:52.073Z,12.27
2023-05-18T08:29:18.836Z,12.30
2023-05-18T08:31:47.681Z,12.45
2023-05-18T08:34:16.390Z,12.43
2023-05-18T08:36:45.930Z,12.44
2023-05-18T08:39:12.884Z,12.54
2023-05-18T08:41:41.603Z,12.79
2023-05-18T08:44:16.425Z,12.91
2023-05-18T08:46:43.496Z,13.05
2023-05-18T08:49:11.035Z,13.29
2023-05-18T08:51:38.016Z,13.37
2023-05-18T08:54:08.572Z,13.57
2023-05-18T08:56:35.257Z,13.76
2023-05-18T08:59:05.022Z,13.88
2023-05-18T09:01:32.108Z,14.00
2023-05-18T09:03:59.887Z,14.10
2023-05-18T09:06:31.607Z,14.25
2023-05-18T09:08:58.675Z,14.34
2023-05-18T09:11:25.955Z,14.29
2023-05-18T09:13:52.650Z,14.21
2023-05-18T09:16:19.349Z,14.39
2023-05-18T09:18:46.816Z,14.54
2023-05-18T09:21:13.560Z,14.57
2023-05-18T09:23:41.226Z,14.68
2023-05-18T09:26:10.411Z,14.69
2023-05-18T09:28:37.831Z,14.75
2023-05-18T09:31:04.949Z,14.69
2023-05-18T09:33:35.597Z,14.73
2023-05-18T09:36:02.620Z,14.94
2023-05-18T09:38:29.254Z,15.17
2023-05-18T09:40:55.973Z,15.47
2023-05-18T09:43:22.702Z,15.64
2023-05-18T09:45:49.519Z,15.48
2023-05-18T09:48:16.445Z,15.33
2023-05-18T09:50:43.494Z,15.19
2023-05-18T09:53:10.359Z,15.45
2023-05-18T09:55:38.484Z,15.69
2023-05-18T09:58:05.446Z,15.78
2023-05-18T10:00:33.105Z,15.86
2023-05-18T10:03:01.263Z,15.84
2023-05-18T10:05:31.489Z,15.83
2023-05-18T10:08:00.347Z,15.78
2023-05-18T10:10:29.895Z,15.82
2023-05-18T10:12:58.645Z,15.88
2023-05-18T10:15:25.422Z,16.08
2023-05-18T10:17:53.695Z,16.26
2023-05-18T10:20:21.416Z,16.64
2023-05-18T10:22:48.477Z,16.96
2023-05-18T10:25:26.101Z,17.28
2023-05-18T10:27:56.365Z,17.58
2023-05-18T10:30:23.243Z,17.77
2023-05-18T10:32:49.910Z,17.77
2023-05-18T10:35:16.589Z,17.90
2023-05-18T10:37:49.282Z,17.69
2023-05-18T10:40:16.045Z,18.19
2023-05-18T10:42:42.686Z,18.30
2023-05-18T10:45:10.029Z,18.02
2023-05-18T10:47:39.813Z,18.63
2023-05-18T10:50:06.947Z,18.86
2023-05-18T10:52:34.221Z,18.95
2023-05-18T10:55:01.335Z,18.80
2023-05-18T10:57:31.440Z,18.77
2023-05-18T10:59:58.237Z,18.54
2023-05-18T11:02:24.996Z,18.60
2023-05-18T11:04:54.115Z,18.73
2023-05-18T11:07:21.405Z,18.81
2023-05-18T11:09:48.890Z,19.07
2023-05-18T11:12:16.621Z,19.16
2023-05-18T11:14:50.576Z,18.68
2023-05-18T11:17:27.777Z,18.28
2023-05-18T11:20:04.678Z,17.98
2023-05-18T11:22:51.508Z,17.92
2023-05-18T11:25:33.433Z,17.96
2023-05-18T11:28:02.110Z,17.93
2023-05-18T11:30:29.291Z,18.25
2023-05-18T11:33:09.030Z,18.52
2023-05-18T11:35:54.261Z,18.44
2023-05-18T11:38:20.925Z,18.66
2023-05-18T11:40:48.190Z,18.53
2023-05-18T11:43:21.263Z,18.29
2023-05-18T11:45:55.092Z,18.13
2023-05-18T11:48:24.162Z,18.16
2023-05-18T11:50:53.160Z,18.55
2023-05-18T11:53:19.850Z,18.82
2023-05-18T11:55:46.866Z,18.78
2023-05-18T11:58:19.133Z,18.97
2023-05-18T12:00:47.618Z,19.39
2023-05-18T12:03:14.456Z,19.67
2023-05-18T12:05:42.265Z,19.67
2023-05-18T12:08:09.264Z,19.47
2023-05-18T12:10:39.890Z,19.89
2023-05-18T12:13:06.520Z,19.93
2023-05-18T12:15:33.216Z,19.79
2023-05-18T12:17:59.958Z,19.38
2023-05-18T12:20:28.551Z,19.36
2023-05-18T12:22:55.607Z,19.36
2023-05-18T12:25:23.659Z,19.25
2023-05-18T12:27:50.673Z,19.25
2023-05-18T12:30:17.289Z,18.90
2023-05-18T12:32:53.954Z,18.53
2023-05-18T12:35:24.104Z,18.32
2023-05-18T12:37:50.952Z,18.01
2023-05-18T12:40:19.227Z,18.14
2023-05-18T12:42:52.966Z,18.82
2023-05-18T12:45:19.865Z,18.90
2023-05-18T12:47:46.853Z,18.73
2023-05-18T12:50:13.587Z,18.71
2023-05-18T12:52:40.228Z,18.78
2023-05-18T12:55:10.786Z,19.14
2023-05-18T12:57:37.456Z,20.14
2023-05-18T13:00:10.611Z,20.88
2023-05-18T13:02:38.311Z,20.26
2023-05-18T13:05:09.034Z,20.39
2023-05-18T13:07:36.209Z,20.37
2023-05-18T13:10:12.766Z,20.27
2023-05-18T13:12:40.071Z,20.08
2023-05-18T13:15:10.039Z,19.72
2023-05-18T13:17:37.030Z,19.58
2023-05-18T13:20:05.030Z,19.17
2023-05-18T13:22:31.840Z,18.86
2023-05-18T13:24:58.531Z,18.95
2023-05-18T13:27:25.223Z,19.47
2023-05-18T13:29:51.874Z,19.44
2023-05-18T13:32:18.537Z,19.60
2023-05-18T13:34:45.187Z,20.26
2023-05-18T13:37:12.478Z,20.52
2023-05-18T13:39:39.988Z,21.19
2023-05-18T13:42:08.725Z,21.22
2023-05-18T13:44:35.447Z,21.08
2023-05-18T13:47:02.120Z,21.05
2023-05-18T13:49:28.789Z,20.85
2023-05-18T13:51:55.440Z,21.11
2023-05-18T13:54:22.131Z,21.05
2023-05-18T13:56:48.838Z,20.92
2023-05-18T13:59:16.597Z,20.74
2023-05-18T14:01:44.927Z,20.52
2023-05-18T14:04:11.697Z,20.09
2023-05-18T14:06:40.826Z,19.87
2023-05-18T14:09:07.612Z,19.46
2023-05-18T14:11:34.889Z,19.19
2023-05-18T14:14:01.557Z,19.11
2023-05-18T14:16:28.894Z,19.13
2023-05-18T14:18:55.741Z,19.17
2023-05-18T14:21:22.421Z,19.13
2023-05-18T14:23:49.075Z,18.95
2023-05-18T14:26:15.759Z,19.01
2023-05-18T14:28:42.411Z,19.18
2023-05-18T14:31:09.274Z,19.34
2023-05-18T14:33:36.426Z,19.27
2023-05-18T14:36:03.313Z,19.25
2023-05-18T14:38:29.981Z,19.08
2023-05-18T14:40:56.673Z,18.95
2023-05-18T14:43:23.508Z,18.93
2023-05-18T14:46:00.194Z,18.76
2023-05-18T14:48:35.046Z,18.73
2023-05-18T14:51:01.813Z,18.93
2023-05-18T14:53:28.512Z,19.14
2023-05-18T14:55:55.228Z,19.15
2023-05-18T14:58:21.897Z,19.24
2023-05-18T15:00:48.528Z,19.28
2023-05-18T15:03:15.313Z,19.20
2023-05-18T15:05:42.014Z,19.16
2023-05-18T15:08:08.668Z,19.03
2023-05-18T15:10:35.654Z,19.15
2023-05-18T15:13:02.428Z,19.06
2023-05-18T15:15:29.076Z,19.02
2023-05-18T15:17:55.926Z,18.83
2023-05-18T15:20:24.537Z,18.86
2023-05-18T15:22:55.126Z,18.83
2023-05-18T15:25:22.265Z,18.90
2023-05-18T15:27:53.357Z,18.71
2023-05-18T15:30:20.028Z,18.63
2023-05-18T15:32:46.777Z,18.46
2023-05-18T15:35:16.297Z,18.32
2023-05-18T15:37:43.141Z,18.31
2023-05-18T15:40:09.946Z,18.38
2023-05-18T15:42:36.936Z,18.55
2023-05-18T15:45:03.663Z,18.68
2023-05-18T15:47:30.325Z,18.85
2023-05-18T15:49:57.820Z,18.82
2023-05-18T15:52:24.935Z,18.75
2023-05-18T15:54:51.617Z,18.43
2023-05-18T15:57:18.402Z,18.49
2023-05-18T15:59:45.187Z,18.30
2023-05-18T16:02:11.962Z,18.09
2023-05-18T16:04:38.760Z,18.01
2023-05-18T16:07:05.464Z,17.87
2023-05-18T16:09:32.296Z,17.80
2023-05-18T16:11:58.985Z,17.73
2023-05-18T16:14:25.720Z,17.85
2023-05-18T16:16:52.708Z,17.78
2023-05-18T16:19:19.633Z,17.64
2023-05-18T16:21:46.441Z,17.79
2023-05-18T16:24:13.098Z,17.81
2023-05-18T16:26:40.230Z,17.72
2023-05-18T16:29:07.009Z,17.58
2023-05-18T16:31:33.731Z,17.52
2023-05-18T16:34:00.605Z,17.53
2023-05-18T16:36:27.374Z,17.46
2023-05-18T16:38:54.075Z,17.36
2023-05-18T16:41:22.134Z,17.33
2023-05-18T16:43:49.164Z,17.33
2023-05-18T16:46:17.603Z,17.30
2023-05-18T16:48:44.330Z,17.22
2023-05-18T16:51:11.285Z,17.24
2023-05-18T16:53:38.063Z,17.22
2023-05-18T16:56:04.853Z,17.26
2023-05-18T16:58:32.396Z,17.27
2023-05-18T17:00:59.099Z,17.19
2023-05-18T17:03:27.738Z,17.21
2023-05-18T17:05:54.543Z,17.23
2023-05-18T17:08:21.177Z,17.20
2023-05-18T17:10:47.954Z,17.18
2023-05-18T17:13:14.717Z,17.14
2023-05-18T17:15:41.576Z,17.16
2023-05-18T17:18:08.326Z,17.10
2023-05-18T17:20:35.040Z,17.10
2023-05-18T17:23:02.192Z,17.04
2023-05-18T17:25:28.988Z,17.00
2023-05-18T17:27:55.787Z,16.95
2023-05-18T17:30:22.462Z,16.92
2023-05-18T17:32:50.751Z,16.85
2023-05-18T17:35:17.557Z,16.76
2023-05-18T17:37:44.241Z,16.67
2023-05-18T17:40:11.168Z,16.71
2023-05-18T17:42:37.848Z,16.60
2023-05-18T17:45:04.637Z,16.60
2023-05-18T17:47:31.336Z,16.55
2023-05-18T17:49:58.022Z,16.55
2023-05-18T17:52:25.084Z,16.45
2023-05-18T17:54:52.459Z,16.49
2023-05-18T17:57:19.152Z,16.50
2023-05-18T17:59:45.850Z,16.52
2023-05-18T18:02:14.319Z,16.46
2023-05-18T18:04:40.996Z,16.43
2023-05-18T18:07:07.706Z,16.37
2023-05-18T18:09:34.562Z,16.37
2023-05-18T18:12:01.496Z,16.35
2023-05-18T18:14:28.174Z,16.31
2023-05-18T18:16:57.155Z,16.26
2023-05-18T18:19:25.152Z,16.26
2023-05-18T18:21:52.004Z,16.14
2023-05-18T18:24:18.709Z,16.08
2023-05-18T18:26:45.370Z,15.98
2023-05-18T18:29:12.242Z,16.00
2023-05-18T18:31:39.302Z,15.94
2023-05-18T18:34:06.491Z,15.92
2023-05-18T18:36:33.547Z,15.97
2023-05-18T18:39:00.201Z,15.93
2023-05-18T18:41:26.927Z,15.93
2023-05-18T18:43:54.956Z,15.90
2023-05-18T18:46:21.928Z,15.82
2023-05-18T18:48:48.753Z,15.81
2023-05-18T18:51:15.507Z,15.84
2023-05-18T18:53:42.156Z,15.79
2023-05-18T18:56:08.802Z,15.80
2023-05-18T18:58:36.102Z,15.72
2023-05-18T19:01:02.784Z,15.68
2023-05-18T19:03:29.527Z,15.67
2023-05-18T19:05:56.238Z,15.61
2023-05-18T19:08:22.965Z,15.58
2023-05-18T19:10:49.614Z,15.56
2023-05-18T19:13:16.286Z,15.49
2023-05-18T19:15:42.965Z,15.45
2023-05-18T19:18:09.649Z,15.37
2023-05-18T19:20:36.367Z,15.29
2023-05-18T19:23:04.991Z,15.20
2023-05-18T19:25:31.958Z,15.21
2023-05-18T19:27:59.176Z,15.17
2023-05-18T19:30:25.892Z,15.07
2023-05-18T19:32:52.889Z,15.01
2023-05-18T19:35:20.245Z,14.95
2023-05-18T19:37:47.113Z,14.90
2023-05-18T19:40:13.810Z,14.84
2023-05-18T19:42:40.536Z,14.79
2023-05-18T19:45:07.297Z,14.69
2023-05-18T19:47:33.976Z,14.60
2023-05-18T19:50:00.802Z,14.52
2023-05-18T19:52:27.503Z,14.47
2023-05-18T19:54:54.213Z,14.39
2023-05-18T19:57:21.584Z,14.32
2023-05-18T19:59:48.242Z,14.35
2023-05-18T20:02:14.896Z,14.31
2023-05-18T20:04:43.247Z,14.24
2023-05-18T20:07:10.042Z,14.19
2023-05-18T20:09:36.987Z,14.17
2023-05-18T20:12:03.787Z,14.11
2023-05-18T20:14:30.841Z,14.10
2023-05-18T20:16:58.657Z,13.99
2023-05-18T20:19:27.739Z,13.95
2023-05-18T20:21:54.591Z,13.93
2023-05-18T20:24:21.499Z,13.89
2023-05-18T20:26:48.131Z,13.88
2023-05-18T20:29:14.812Z,13.93
2023-05-18T20:31:41.586Z,13.79
2023-05-18T20:34:08.303Z,13.91
2023-05-18T20:36:36.033Z,13.80
2023-05-18T20:39:02.818Z,13.70
2023-05-18T20:41:29.806Z,13.69
2023-05-18T20:43:56.986Z,13.61
2023-05-18T20:46:25.134Z,13.59
2023-05-18T20:48:57.741Z,13.65
2023-05-18T20:51:24.893Z,13.70
2023-05-18T20:53:51.954Z,13.67
2023-05-18T20:56:19.017Z,13.68
2023-05-18T20:58:48.917Z,13.72
2023-05-18T21:01:16.290Z,13.78
2023-05-18T21:03:45.378Z,13.82
2023-05-18T21:06:13.258Z,13.85
2023-05-18T21:08:40.354Z,13.87
2023-05-18T21:11:07.318Z,13.87
2023-05-18T21:13:37.002Z,13.77
2023-05-18T21:16:06.837Z,13.81
2023-05-18T21:18:34.627Z,13.81
2023-05-18T21:21:04.148Z,13.83
2023-05-18T21:23:31.007Z,13.84
2023-05-18T21:25:57.796Z,13.84
2023-05-18T21:28:25.232Z,13.82
2023-05-18T21:30:52.548Z,13.82
2023-05-18T21:33:19.515Z,13.69
2023-05-18T21:35:46.265Z,13.65
2023-05-18T21:38:12.909Z,13.57
2023-05-18T21:40:42.785Z,13.57
2023-05-18T21:43:10.366Z,13.56
2023-05-18T21:45:37.084Z,13.59
2023-05-18T21:48:03.879Z,13.61
2023-05-18T21:50:35.124Z,13.63
2023-05-18T21:53:05.317Z,13.66
2023-05-18T21:55:32.020Z,13.63
2023-05-18T21:57:58.785Z,13.62
2023-05-18T22:00:26.053Z,13.57
2023-05-18T22:02:52.803Z,13.44
2023-05-18T22:05:20.154Z,13.54
2023-05-18T22:07:46.820Z,13.51
2023-05-18T22:10:13.726Z,13.55
2023-05-18T22:12:43.670Z,13.47
2023-05-18T22:15:13.335Z,13.56
2023-05-18T22:17:40.427Z,13.54
2023-05-18T22:20:09.265Z,13.53
2023-05-18T22:22:36.016Z,13.44
2023-05-18T22:25:02.702Z,13.42
2023-05-18T22:27:29.426Z,13.44
2023-05-18T22:29:56.327Z,13.39
2023-05-18T22:32:23.254Z,13.37
2023-05-18T22:34:50.115Z,13.41
2023-05-18T22:37:16.799Z,13.41
2023-05-18T22:39:44.044Z,13.39
2023-05-18T22:42:11.110Z,13.44
2023-05-18T22:44:38.123Z,13.45
2023-05-18T22:47:04.904Z,13.47
2023-05-18T22:49:31.593Z,13.38
2023-05-18T22:51:58.457Z,13.44
2023-05-18T22:54:25.107Z,13.37
2023-05-18T22:56:51.810Z,13.38
2023-05-18T22:59:18.514Z,13.33
2023-05-18T23:01:45.207Z,13.32
2023-05-18T23:04:13.381Z,13.35
2023-05-18T23:06:41.459Z,13.26
2023-05-18T23:09:08.234Z,13.12
2023-05-18T23:11:37.483Z,13.02
2023-05-18T23:14:04.357Z,12.95
2023-05-18T23:16:31.092Z,12.96
2023-05-18T23:19:01.934Z,12.88
2023-05-18T23:21:28.721Z,12.92
2023-05-18T23:23:55.873Z,12.78
2023-05-18T23:26:22.880Z,12.79
2023-05-18T23:28:49.546Z,12.69
2023-05-18T23:31:16.641Z,12.69
2023-05-18T23:33:43.480Z,12.69
2023-05-18T23:36:10.395Z,12.67
2023-05-18T23:38:37.931Z,12.62
2023-05-18T23:41:04.873Z,12.62
2023-05-18T23:43:31.641Z,12.48
2023-05-18T23:46:00.019Z,12.43
2023-05-18T23:48:27.830Z,12.46
2023-05-18T23:50:54.560Z,12.46
2023-05-18T23:53:21.766Z,12.46
2023-05-18T23:55:49.250Z,12.41
2023-05-18T23:58:19.071Z,12.48
